Baton, North Carolina
Current Conditions -  °F | °C
As of 8:53 PM on Friday 19 Dec 2014 (Local Time) from KHKY Reporting Station
Clear Clear  
Wind Chill: 43°   Ceiling: Unl
Heat Index: 43°   Visibility: 10mi
Dew Point: 34°   Wind: 3mph
Humidity: 71%   Direction: 20°NNE
Pressure: 30.15"   Gusts: NA
Location:  35.83°N, 81.4147°W
Report Text: KHKY 200153Z AUTO 02003KT 10SM CLR 06/01 A3015 RMK AO2 SLP203 T00610011
Loading
Personal Weather Stations






























Interactive Weather Map New forecast layout! Learn more

10-Day Weather Forecast

Advertisements
Track Severe Weather on mobile